सभी
New Market Airport (New Market, VA) 8W2 मौसम
|
New Market, VA (8W2)
स्वच्छ आकाश
शांत हवाएं |
|
12 °C |
There is no TAF data available at 8W2 or any nearby airports.
Recent 8W2 METAR history
| Date | Time (EDT) | Flight Rules | Wind Dir. | Speed | Type | Height AGL (ft) | Visibility | Temp (°C) | Temp (°F) | Dew Point (°C) | Dew Point (°F) | Rel. Humid. | Pressure | Density Altitude | Remarks |
|---|---|---|---|---|---|---|---|---|---|---|---|---|---|---|---|
| 05-मई | 03:15 | VFR | 240° | 3 kt | 10 miles | 12° | 53° | 10° | 50° | 89% | 29.87 in Hg | 652 ft | |||
| 05-मई | 02:55 | VFR | 250° | 4 kt | 10 miles | 12° | 53° | 10° | 50° | 89% | 29.87 in Hg | 652 ft | |||
| 05-मई | 02:35 | VFR | Calm | 10 miles | — | — | — | — | — | 29.87 in Hg | |||||
| 05-मई | 02:15 | VFR | Calm | 10 miles | 9° | 48° | 9° | 48° | 96% | 29.87 in Hg | 292 ft | ||||
| 05-मई | 01:55 | VFR | Calm | 10 miles | 9° | 48° | 8° | 46° | 93% | 29.87 in Hg | 292 ft | ||||
| 05-मई | 01:35 | VFR | 230° | 4 kt | 10 miles | 11° | 51° | 10° | 50° | 96% | 29.87 in Hg | 532 ft | |||
| 05-मई | 01:15 | VFR | Calm | 10 miles | 11° | 51° | 10° | 50° | 96% | 29.87 in Hg | 532 ft | ||||
| 05-मई | 00:55 | VFR | Calm | 10 miles | 11° | 51° | 10° | 50° | 96% | 29.87 in Hg | 532 ft | ||||
| 05-मई | 00:35 | VFR | Calm | 10 miles | 11° | 51° | 11° | 51° | 96% | 29.87 in Hg | 532 ft | ||||
| 05-मई | 00:15 | VFR | Calm | 10 miles | 12° | 53° | 11° | 51° | 96% | 29.87 in Hg | 652 ft | ||||
| 04-मई | 23:55 | VFR | Calm | 10 miles | 11° | 51° | 11° | 51° | 96% | 29.87 in Hg | 532 ft | ||||
| 04-मई | 23:35 | VFR | Calm | 10 miles | 13° | 55° | 12° | 53° | 92% | 29.87 in Hg | 772 ft | ||||
| 04-मई | 23:15 | VFR | 230° | 3 kt | 10 miles | 15° | 59° | 9° | 48° | 71% | 29.87 in Hg | 1,012 ft | |||
| 04-मई | 22:55 | VFR | 240° | 5 kt | 10 miles | 16° | 60° | 9° | 48° | 64% | 29.87 in Hg | 1,132 ft | |||
| 04-मई | 22:35 | VFR | 240° | 4 kt | 10 miles | 16° | 60° | 10° | 50° | 64% | 29.88 in Hg | 1,122 ft | |||
| 04-मई | 22:15 | VFR | 240° | 6 kt | 10 miles | 16° | 60° | 10° | 50° | 65% | 29.88 in Hg | 1,122 ft | |||
| 04-मई | 21:55 | VFR | 250° | 5 kt | 10 miles | 16° | 60° | 10° | 50° | 66% | 29.87 in Hg | 1,132 ft | |||
| 04-मई | 21:35 | VFR | 230° | 4 kt | 10 miles | 16° | 60° | 10° | 50° | 67% | 29.87 in Hg | 1,132 ft | |||
| 04-मई | 21:15 | VFR | 230° | 5 kt | 10 miles | 18° | 64° | 10° | 50° | 59% | 29.87 in Hg | 1,372 ft | |||
| 04-मई | 20:55 | VFR | 240° | 5 kt | 10 miles | 18° | 64° | 10° | 50° | 60% | 29.85 in Hg | 1,392 ft | |||
| 04-मई | 20:35 | VFR | 240° | 5 kt | 10 miles | 18° | 64° | 10° | 50° | 58% | 29.85 in Hg | 1,392 ft | |||
| 04-मई | 20:15 | VFR | 220° | 3 kt | 10 miles | 18° | 64° | 10° | 50° | 59% | 29.84 in Hg | 1,402 ft | |||
| 04-मई | 19:55 | VFR | 220° | 3 kt | 10 miles | 18° | 64° | 11° | 51° | 62% | 29.84 in Hg | 1,402 ft | |||
| 04-मई | 19:35 | VFR | Calm | 10 miles | 16° | 60° | 15° | 59° | 96% | 29.83 in Hg | 1,172 ft |
लॉगिन
| Your browser is unsupported. अपना ब्राऊजर अपग्रेड करें |
